Station: Murray Bridge

  Atmospheric Gas Attenuation - ITU Rec 676-11   --------------- db/100km ---------------
Date Time Temp RH % AH g/m3 Dew Point Wind Direction Speed kph Gust kph Barometer mB Rainfall Since 9am 24GHz 47GHz 76GHz 122GHz 134GHz 241GHz
16 09:00 6.3 80 5.93 3.2 0 1013.1 0 14.2 23.7 32.5 84.9 71.3 242.6
14 09:00 4.7 99 6.6 4.5 0 1013.1 0.2 15.7 25.2 35.9 94.0 82.0 279.7
13 09:00 10.2 97 9.23 9.8 0 1013.1 0.4 21.1 28.0 44.3 116.5 111.9 385.4
12 09:00 10.6 95 9.27 9.8 7 1013.1 3 21.2 28.0 44.3 116.4 111.9 385.4
11 09:00 7.8 93 7.59 6.7 0 1013.1 0.2 17.7 26.0 38.6 101.3 92.2 315.8
10 09:00 1013.1
09 09:00 3.8 97 6.09 3.3 11 1013.1 0 14.6 24.6 34.2 89.4 75.9 258.2
08 09:00 8.1 83 6.91 5.4 0 1013.1 0 16.2 24.8 35.7 93.4 82.6 282.3
07 09:00 10.6 70 6.83 5.4 0 1013.1 0 15.9 23.9 34.3 89.6 78.9 269.8
06 09:00 9.1 81 7.19 6.1 0 1013.1 0 16.8 24.9 36.4 95.2 85.2 291.7
05 09:00 11.8 87 9.16 9.8 0 1013.1 0.4 20.9 27.4 43.1 113.4 108.6 374.1
04 09:00 10.1 91 8.61 8.7 0 1013.1 2 19.8 27.0 41.7 109.6 103.4 355.4
02 09:00 9.6 88 8.06 7.7 0 1013.1 7 18.6 26.2 39.7 104.1 96.4 331.0
01 09:00 8.6 66 5.67 2.7 0 1013.1 0 13.5 22.7 30.6 79.8 66.0 224.1
30 09:00 9.2 60 5.36 2 7 1013.1 0 12.9 22.0 29.2 76.0 61.6 208.9
29 09:00 4.7 86 5.73 2.5 0 1013.1 0.1 13.8 23.8 32.3 84.5 70.1 238.2
28 09:00 6.1 82 5.99 3.2 0 1013.1 0 14.3 23.8 32.8 85.7 72.3 246.0
27 09:00 7.3 91 7.19 6 0 1013.1 0.1 16.9 25.4 37.2 97.4 87.2 298.5
26 09:00 9 96 8.47 8.4 0 1013.1 0.4 19.5 27.1 41.7 109.6 102.9 353.6
25 09:00 12.7 66 7.35 6.6 4 1013.1 0.1 17.0 24.2 35.4 92.6 83.4 285.9
24 09:00 8.8 95 8.27 8 0 1013.1 0.2 19.1 26.8 41.0 107.6 100.4 344.6
23 09:00 12 95 10.13 11.2 11 1013.1 7 23.0 29.0 47.2 124.2 122.0 420.8
22 09:00 11.1 87 8.76 9.1 15 1013.1 3 20.1 27.0 41.8 109.9 104.1 358.0
21 09:00 11.8 89 9.37 10 7 1013.1 7 21.3 27.8 44.0 115.7 111.6 384.3
20 09:00 9.8 87 8.07 7.7 0 1013.1 0 18.6 26.2 39.6 104.0 96.3 330.6
19 09:00 8.9 72 6.31 4.1 4 1013.1 0 14.9 23.6 32.9 86.1 73.9 251.9
18 09:00 8.6 88 7.56 6.7 0 1013.1 0.2 17.6 25.7 38.1 99.9 90.8 311.2
17 09:00 10.5 96 9.31 9.9 0 1013.1 0.4 21.3 28.1 44.5 117.0 112.6 387.8
16 09:00 14.3 85 10.44 11.9 0 1013.1 0.1 23.5 28.8 47.1 124.0 122.7 423.6
15 09:00 14.2 79 9.65 10.6 11 1013.1 1 21.8 27.5 43.9 115.3 111.9 385.9
14 09:00 12.8 75 8.4 8.6 22 1013.1 2 19.2 25.9 39.5 103.6 97.0 333.5
13 09:00 10.2 68 6.47 4.6 4 1013.1 0.1 15.2 23.5 33.0 86.3 74.7 255.0
12 09:00 5 79 5.37 1.7 0 1013.1 0 13.0 23.1 30.8 80.3 65.1 220.7
11 09:00 3 86 5.12 0.9 0 1013.1 0 12.6 23.2 30.6 79.7 63.5 214.6
10 09:00 5 79 5.37 1.7 0 1013.1 0 13.0 23.1 30.8 80.3 65.1 220.7
09 09:00 2.6 94 5.45 1.8 0 1013.1 0.1 13.3 23.9 32.1 83.7 68.2 231.3
08 09:00 4.6 82 5.43 1.8 0 1013.1 0.1 13.2 23.3 31.2 81.3 66.2 224.5
07 09:00 9.2 85 7.59 6.9 0 1013.1 0.1 17.6 25.6 37.9 99.5 90.5 310.2
06 09:00 7.2 94 7.38 6.3 0 1013.1 0 17.3 25.8 38.0 99.7 90.0 308.1
05 09:00 4.5 89 5.85 2.8 0 1013.1 0.1 14.1 24.0 32.9 86.0 71.9 244.5
04 09:00 5.8 88 6.31 3.9 0 1013.1 0.2 15.0 24.4 34.2 89.5 76.9 262.0
03 09:00 12.1 75 8.04 7.8 4 1013.1 0.5 18.5 25.5 38.4 100.6 93.1 319.6
02 09:00 9.9 97 9.06 9.5 0 1013.1 3 20.8 27.8 43.8 115.0 110.0 378.4
31 09:00 11 90 9.01 9.4 4 1013.1 0.6 20.6 27.4 43.0 112.8 107.7 370.6
30 09:00 11 61 6.11 3.8 7 1013.1 0 14.4 22.7 31.3 81.8 69.4 236.5
29 09:00 8.9 84 7.36 6.3 0 1013.1 0.1 17.2 25.3 37.1 97.3 87.7 300.5
28 09:00 10 91 8.55 8.6 4 1013.1 0.2 19.7 26.9 41.5 109.1 102.7 352.9
27 09:00 14.8 61 7.73 7.3 4 1013.1 0.3 17.7 24.2 35.9 94.1 86.0 295.1
26 09:00 9 82 7.23 6.2 11 1013.1 0.1 16.9 25.0 36.6 95.8 85.9 294.0
25 09:00 10 77 7.24 6.1 0 1013.1 0.1 16.8 24.8 36.1 94.7 84.9 290.7
24 09:00 11 95 9.51 10.2 0 1013.1 2 21.7 28.3 45.1 118.5 114.7 395.2
23 09:00 12.8 96 10.75 12.2 11 1013.1 9 24.3 29.8 49.4 130.1 129.6 447.4
22 09:00 12.3 82 8.9 9.3 4 1013.1 0.2 20.3 26.8 41.8 109.7 104.4 359.2
21 09:00 10.2 80 7.61 7 11 1013.1 7 17.6 25.3 37.5 98.4 89.6 307.2
20 09:00 10.7 83 8.15 8 0 1013.1 0.4 18.8 26.1 39.5 103.7 96.3 330.6
19 09:00 14 62 7.48 7 4 1013.1 0.1 17.2 24.1 35.3 92.5 83.7 287.0
18 09:00 9.1 76 6.75 5.1 4 1013.1 0.1 15.8 24.2 34.6 90.5 79.4 271.3
17 09:00 8.1 80 6.66 4.9 0 1013.1 0 15.7 24.4 34.7 90.7 79.2 270.6
16 09:00 7.3 78 6.17 3.8 0 1013.1 0 14.7 23.8 33.0 86.4 73.6 250.6
15 09:00 6.4 80 5.96 3.3 0 1013.1 0 14.2 23.7 32.6 85.1 71.6 243.7
14 09:00 11.7 76 7.95 7.6 4 1013.1 0.2 18.3 25.4 38.2 100.2 92.4 317.1
13 09:00 11.6 83 8.63 8.8 4 1013.1 4 19.8 26.6 41.0 107.7 101.6 349.5
12 09:00 13.2 61 7 5.8 4 1013.1 0.1 16.2 23.5 33.8 88.5 78.5 268.6
11 09:00 11.2 81 8.21 8.1 0 1013.1 0.1 18.9 26.0 39.5 103.7 96.5 331.3
10 09:00 11.8 75 7.89 7.5 0 1013.1 0.4 18.2 25.3 37.9 99.4 91.5 313.9
09 09:00 12 74 7.89 7.5 15 1013.1 12 18.2 25.3 37.8 99.2 91.2 313.1
08 09:00 14.6 90 11.26 13 11 1013.1 1 25.3 30.1 50.5 133.0 133.8 462.4
07 09:00 19.3 38 6.3 4.9 15 1013.1 0 14.5 21.0 29.0 75.6 64.7 221.0
06 09:00 9.7 74 6.82 5.3 15 1013.1 0 16.0 24.2 34.6 90.5 79.7 272.5
05 09:00 10.9 76 7.56 6.9 0 1013.1 0.1 17.5 25.0 37.0 97.0 88.1 302.1
04 09:00 13.7 70 8.29 8.3 0 1013.1 0.1 18.9 25.4 38.6 101.3 94.4 324.6
03 09:00 13.5 68 7.95 7.8 0 1013.1 1 18.2 24.9 37.4 97.9 90.3 309.9
02 09:00 14.8 81 10.26 11.6 33 1013.1 1 23.1 28.3 46.1 121.2 119.4 412.1
01 09:00 13.8 76 9.06 9.7 33 1013.1 7 20.6 26.6 41.7 109.4 104.5 359.9
30 09:00 8.7 96 8.31 8.1 4 1013.1 21 19.2 26.9 41.2 108.2 101.0 347.1
29 09:00 13.2 89 10.22 11.5 0 1013.1 3 23.1 28.8 46.9 123.3 121.4 418.7
28 09:00 12.8 82 9.19 9.9 0 1013.1 0 20.9 27.2 42.7 112.3 107.7 370.7
27 09:00 11.4 91 9.34 10 4 1013.1 0.2 21.3 27.9 44.1 116.0 111.7 384.8
26 09:00 18.2 79 12.28 14.6 11 1013.1 19 27.2 30.6 52.5 138.4 141.8 490.7
25 09:00 16.9 79 11.36 13.2 7 1013.1 0.2 25.3 29.5 49.4 130.2 131.2 453.7
24 09:00 15.4 86 11.3 13.1 0 1013.1 3 25.3 29.9 50.1 132.1 133.0 459.6
23 09:00 16.9 62 8.92 9.6 4 1013.1 0 20.1 25.5 39.5 103.7 98.6 339.7
22 09:00 15.9 79 10.7 12.3 0 1013.1 0.1 24.0 28.7 47.3 124.4 123.7 427.4
21 09:00 17 57 8.25 8.6 11 1013.1 0.1 18.7 24.4 36.9 96.7 90.0 309.6
20 09:00 18.7 57 9.13 10.1 11 1013.1 0.2 20.5 25.3 39.4 103.5 99.0 341.3
19 09:00 12.9 97 10.93 12.5 4 1013.1 0.6 24.6 30.1 50.1 132.0 132.0 456.0
18 09:00 16.3 68 9.43 10.5 0 1013.1 0 21.2 26.5 41.8 109.9 106.0 365.5
17 09:00 16.3 61 8.46 8.9 11 1013.1 0 19.2 25.0 38.0 99.7 93.5 321.7
16 09:00 19.3 64 10.61 12.5 11 1013.1 0 23.6 27.5 44.9 118.2 117.2 405.1
15 09:00 16.9 41 5.9 3.8 4 1013.1 0 13.7 21.0 28.4 74.1 62.0 211.4
14 09:00 19.2 33 5.44 2.6 4 1013.1 0 12.7 19.9 26.1 67.9 55.3 187.8
13 09:00 14 60 7.24 6.3 11 1013.1 0 16.7 23.7 34.4 90.0 80.7 276.4
12 09:00 14.7 52 6.55 5.1 0 1013.1 0 15.2 22.5 31.5 82.4 71.5 244.4
10 09:00 16.8 74 10.58 12.1 0 1013.1 0 23.7 28.2 46.2 121.6 120.7 416.8
09 09:00 15.1 75 9.68 10.8 0 1013.1 0.1 21.8 27.3 43.5 114.3 111.0 382.9
08 09:00 13.8 71 8.46 8.6 4 1013.1 0 19.3 25.7 39.2 102.9 96.5 332.0
07 09:00 14.8 87 11.02 12.6 0 1013.1 0.2 24.7 29.6 49.3 129.8 130.1 449.3
06 09:00 15.5 90 11.9 13.9 0 1013.1 0.6 26.6 30.9 52.7 138.9 141.4 489.0
05 09:00 16.4 75 10.47 12 4 1013.1 23.4 28.2 46.0 121.1 119.8 413.7
04 09:00 14.3 69 8.48 8.8 30 1013.1 4 19.3 25.6 39.1 102.5 96.2 330.8

Last Refresh: 17-Jul-2020 02:32:58

Most of the information presented on this site is sourced from the Bureau of Meteorology.  Copyright in all material sourced from the Bureau of Meteorology resides with the Commonwealth of Australia.